sensor_id;sensor_type;location;lat;lon;timestamp;temperature;humidity
10192;DHT22;17580;50.850;4.504;2023-07-09T02:42:10;20.90;92.80
10192;DHT22;17580;50.850;4.504;2023-07-09T02:44:37;20.90;93.20
10192;DHT22;17580;50.850;4.504;2023-07-09T02:47:05;20.70;92.80
10192;DHT22;17580;50.850;4.504;2023-07-09T02:49:34;20.80;92.30
10192;DHT22;17580;50.850;4.504;2023-07-09T02:52:01;20.80;92.60
10192;DHT22;17580;50.850;4.504;2023-07-09T02:54:28;20.80;92.70
10192;DHT22;17580;50.850;4.504;2023-07-09T02:56:55;20.70;92.20
10192;DHT22;17580;50.850;4.504;2023-07-09T02:59:23;20.90;92.40
10192;DHT22;17580;50.850;4.504;2023-07-09T04:30:28;20.80;80.60
10192;DHT22;17580;50.850;4.504;2023-07-09T04:32:57;20.80;81.20
10192;DHT22;17580;50.850;4.504;2023-07-09T04:35:24;20.80;81.80
10192;DHT22;17580;50.850;4.504;2023-07-09T04:37:51;20.80;82.00
10192;DHT22;17580;50.850;4.504;2023-07-09T04:40:18;20.90;78.70
10192;DHT22;17580;50.850;4.504;2023-07-09T04:42:45;20.90;80.30
10192;DHT22;17580;50.850;4.504;2023-07-09T04:45:12;20.90;83.80
10192;DHT22;17580;50.850;4.504;2023-07-09T04:47:39;20.80;83.10
10192;DHT22;17580;50.850;4.504;2023-07-09T04:50:08;21.00;86.10
10192;DHT22;17580;50.850;4.504;2023-07-09T04:52:37;20.90;89.40
10192;DHT22;17580;50.850;4.504;2023-07-09T04:55:04;20.90;85.80
10192;DHT22;17580;50.850;4.504;2023-07-09T04:57:33;20.90;84.10
10192;DHT22;17580;50.850;4.504;2023-07-09T05:00:00;20.90;85.20
10192;DHT22;17580;50.850;4.504;2023-07-09T05:02:28;20.90;85.50
10192;DHT22;17580;50.850;4.504;2023-07-09T05:04:55;21.00;86.90
10192;DHT22;17580;50.850;4.504;2023-07-09T05:34:26;21.70;78.50
10192;DHT22;17580;50.850;4.504;2023-07-09T05:36:53;21.60;79.40
10192;DHT22;17580;50.850;4.504;2023-07-09T05:39:20;21.60;77.70
10192;DHT22;17580;50.850;4.504;2023-07-09T05:41:49;21.70;76.90
10192;DHT22;17580;50.850;4.504;2023-07-09T05:44:16;21.60;77.80
10192;DHT22;17580;50.850;4.504;2023-07-09T05:46:43;21.80;77.40
10192;DHT22;17580;50.850;4.504;2023-07-09T05:49:10;21.80;77.80
10192;DHT22;17580;50.850;4.504;2023-07-09T05:51:37;21.90;80.10
10192;DHT22;17580;50.850;4.504;2023-07-09T05:54:04;21.70;80.90
10192;DHT22;17580;50.850;4.504;2023-07-09T05:56:31;22.10;80.70
10192;DHT22;17580;50.850;4.504;2023-07-09T05:58:59;22.10;80.80
10192;DHT22;17580;50.850;4.504;2023-07-09T06:01:26;22.20;90.50
10192;DHT22;17580;50.850;4.504;2023-07-09T06:18:40;22.50;63.80
10192;DHT22;17580;50.850;4.504;2023-07-09T06:21:07;22.60;65.80
10192;DHT22;17580;50.850;4.504;2023-07-09T06:23:37;22.60;63.80
10192;DHT22;17580;50.850;4.504;2023-07-09T06:26:04;22.70;63.80
10192;DHT22;17580;50.850;4.504;2023-07-09T06:28:31;22.80;62.80
10192;DHT22;17580;50.850;4.504;2023-07-09T06:30:58;22.80;62.90
10192;DHT22;17580;50.850;4.504;2023-07-09T06:33:27;22.80;61.00
10192;DHT22;17580;50.850;4.504;2023-07-09T06:35:57;23.00;60.80
10192;DHT22;17580;50.850;4.504;2023-07-09T06:38:24;23.00;61.70
10192;DHT22;17580;50.850;4.504;2023-07-09T06:40:51;23.00;62.80
10192;DHT22;17580;50.850;4.504;2023-07-09T06:43:18;23.10;63.40
10192;DHT22;17580;50.850;4.504;2023-07-09T06:45:49;23.00;61.60
10192;DHT22;17580;50.850;4.504;2023-07-09T06:48:16;23.10;62.10
10192;DHT22;17580;50.850;4.504;2023-07-09T06:50:45;23.00;66.10
10192;DHT22;17580;50.850;4.504;2023-07-09T06:55:39;23.40;60.30
10192;DHT22;17580;50.850;4.504;2023-07-09T06:58:06;23.30;62.90
10192;DHT22;17580;50.850;4.504;2023-07-09T07:00:34;23.30;62.80
10192;DHT22;17580;50.850;4.504;2023-07-09T07:03:02;23.50;62.80
10192;DHT22;17580;50.850;4.504;2023-07-09T07:05:29;23.60;62.50
10192;DHT22;17580;50.850;4.504;2023-07-09T07:07:58;23.50;63.90
10192;DHT22;17580;50.850;4.504;2023-07-09T07:10:26;23.60;64.20
10192;DHT22;17580;50.850;4.504;2023-07-09T07:12:53;23.50;56.50
10192;DHT22;17580;50.850;4.504;2023-07-09T07:15:20;23.50;55.50
10192;DHT22;17580;50.850;4.504;2023-07-09T07:17:48;23.60;56.30
10192;DHT22;17580;50.850;4.504;2023-07-09T07:20:16;23.60;55.80
10192;DHT22;17580;50.850;4.504;2023-07-09T07:22:43;23.70;55.20
10192;DHT22;17580;50.850;4.504;2023-07-09T07:25:11;23.80;55.00
10192;DHT22;17580;50.850;4.504;2023-07-09T07:27:39;23.90;54.50
10192;DHT22;17580;50.850;4.504;2023-07-09T07:30:07;23.90;54.30
10192;DHT22;17580;50.850;4.504;2023-07-09T07:32:37;23.90;54.40
10192;DHT22;17580;50.850;4.504;2023-07-09T07:35:04;24.10;55.10
10192;DHT22;17580;50.850;4.504;2023-07-09T07:37:31;24.10;55.50
10192;DHT22;17580;50.850;4.504;2023-07-09T07:39:59;24.30;55.70
10192;DHT22;17580;50.850;4.504;2023-07-09T07:42:27;24.30;54.80
10192;DHT22;17580;50.850;4.504;2023-07-09T07:44:54;24.20;54.20
10192;DHT22;17580;50.850;4.504;2023-07-09T07:47:21;24.30;53.10
10192;DHT22;17580;50.850;4.504;2023-07-09T07:49:48;24.40;53.40
10192;DHT22;17580;50.850;4.504;2023-07-09T07:52:15;24.40;52.80
10192;DHT22;17580;50.850;4.504;2023-07-09T07:54:42;24.50;54.40
10192;DHT22;17580;50.850;4.504;2023-07-09T07:57:09;24.50;53.50
10192;DHT22;17580;50.850;4.504;2023-07-09T07:59:39;24.60;54.50
10192;DHT22;17580;50.850;4.504;2023-07-09T08:02:10;24.70;52.20
10192;DHT22;17580;50.850;4.504;2023-07-09T08:04:38;24.70;52.10
10192;DHT22;17580;50.850;4.504;2023-07-09T08:07:06;24.70;52.20
10192;DHT22;17580;50.850;4.504;2023-07-09T08:09:33;24.80;51.60
10192;DHT22;17580;50.850;4.504;2023-07-09T08:12:01;24.70;51.60
10192;DHT22;17580;50.850;4.504;2023-07-09T08:14:34;24.90;53.30
10192;DHT22;17580;50.850;4.504;2023-07-09T08:17:03;25.00;51.30
10192;DHT22;17580;50.850;4.504;2023-07-09T08:21:58;25.00;58.10
10192;DHT22;17580;50.850;4.504;2023-07-09T08:24:25;25.10;62.90
10192;DHT22;17580;50.850;4.504;2023-07-09T08:26:52;25.10;53.60
10192;DHT22;17580;50.850;4.504;2023-07-09T08:29:19;25.20;53.90
10192;DHT22;17580;50.850;4.504;2023-07-09T08:31:46;25.20;54.60
10192;DHT22;17580;50.850;4.504;2023-07-09T08:34:15;25.20;54.50
10192;DHT22;17580;50.850;4.504;2023-07-09T08:36:41;25.30;54.00
10192;DHT22;17580;50.850;4.504;2023-07-09T08:39:10;25.40;53.00
10192;DHT22;17580;50.850;4.504;2023-07-09T08:41:40;25.40;53.50
10192;DHT22;17580;50.850;4.504;2023-07-09T08:47:02;25.50;52.60
10192;DHT22;17580;50.850;4.504;2023-07-09T08:49:38;25.60;51.90
10192;DHT22;17580;50.850;4.504;2023-07-09T08:52:12;25.60;50.70
10192;DHT22;17580;50.850;4.504;2023-07-09T08:54:42;25.70;51.70
10192;DHT22;17580;50.850;4.504;2023-07-09T08:57:20;25.80;51.00
10192;DHT22;17580;50.850;4.504;2023-07-09T08:59:49;25.80;51.30
10192;DHT22;17580;50.850;4.504;2023-07-09T09:02:25;25.90;48.80
10192;DHT22;17580;50.850;4.504;2023-07-09T09:04:55;26.00;50.00
10192;DHT22;17580;50.850;4.504;2023-07-09T09:07:31;26.10;48.50
10192;DHT22;17580;50.850;4.504;2023-07-09T09:10:03;26.20;49.00
10192;DHT22;17580;50.850;4.504;2023-07-09T09:12:35;26.30;49.40
10192;DHT22;17580;50.850;4.504;2023-07-09T09:15:09;26.50;48.00
10192;DHT22;17580;50.850;4.504;2023-07-09T09:17:39;27.30;45.10
10192;DHT22;17580;50.850;4.504;2023-07-09T09:20:11;28.10;45.30
10192;DHT22;17580;50.850;4.504;2023-07-09T09:22:44;29.00;42.30
10192;DHT22;17580;50.850;4.504;2023-07-09T09:25:21;29.70;40.90
10192;DHT22;17580;50.850;4.504;2023-07-09T09:27:49;30.30;38.50
10192;DHT22;17580;50.850;4.504;2023-07-09T09:30:19;30.70;34.60
10192;DHT22;17580;50.850;4.504;2023-07-09T09:32:50;31.10;33.30
10192;DHT22;17580;50.850;4.504;2023-07-09T09:35:26;31.60;30.60
10192;DHT22;17580;50.850;4.504;2023-07-09T09:37:56;31.80;27.90
10192;DHT22;17580;50.850;4.504;2023-07-09T09:40:25;32.30;28.90
10192;DHT22;17580;50.850;4.504;2023-07-09T09:42:55;32.40;24.30
10192;DHT22;17580;50.850;4.504;2023-07-09T09:45:26;32.70;25.90
10192;DHT22;17580;50.850;4.504;2023-07-09T09:47:59;33.00;24.00
10192;DHT22;17580;50.850;4.504;2023-07-09T09:50:31;33.50;22.80
10192;DHT22;17580;50.850;4.504;2023-07-09T09:52:59;33.70;23.00
10192;DHT22;17580;50.850;4.504;2023-07-09T09:55:29;33.80;20.20
10192;DHT22;17580;50.850;4.504;2023-07-09T09:57:58;33.90;17.40
10192;DHT22;17580;50.850;4.504;2023-07-09T10:00:27;33.80;19.30
10192;DHT22;17580;50.850;4.504;2023-07-09T10:02:58;33.90;20.20
10192;DHT22;17580;50.850;4.504;2023-07-09T10:05:31;34.20;18.20
10192;DHT22;17580;50.850;4.504;2023-07-09T10:08:03;34.50;18.40
10192;DHT22;17580;50.850;4.504;2023-07-09T10:10:33;34.40;16.80
10192;DHT22;17580;50.850;4.504;2023-07-09T10:13:05;34.50;17.60
10192;DHT22;17580;50.850;4.504;2023-07-09T10:15:40;34.60;16.40
10192;DHT22;17580;50.850;4.504;2023-07-09T10:18:17;34.60;17.00
10192;DHT22;17580;50.850;4.504;2023-07-09T10:20:56;34.10;15.40
10192;DHT22;17580;50.850;4.504;2023-07-09T10:23:30;33.60;19.20
10192;DHT22;17580;50.850;4.504;2023-07-09T10:26:06;33.20;19.40
10192;DHT22;17580;50.850;4.504;2023-07-09T10:28:54;32.50;16.30
10192;DHT22;17580;50.850;4.504;2023-07-09T10:31:33;31.90;16.20
10192;DHT22;17580;50.850;4.504;2023-07-09T10:34:11;31.20;20.60
10192;DHT22;17580;50.850;4.504;2023-07-09T10:37:00;31.10;23.10
10192;DHT22;17580;50.850;4.504;2023-07-09T10:39:34;30.80;21.40
10192;DHT22;17580;50.850;4.504;2023-07-09T10:42:03;30.50;21.60
10192;DHT22;17580;50.850;4.504;2023-07-09T10:44:34;30.30;23.30
10192;DHT22;17580;50.850;4.504;2023-07-09T10:47:05;30.20;24.70
10192;DHT22;17580;50.850;4.504;2023-07-09T10:49:35;29.80;22.70
10192;DHT22;17580;50.850;4.504;2023-07-09T10:52:10;29.60;22.90
10192;DHT22;17580;50.850;4.504;2023-07-09T10:54:45;29.40;23.80
10192;DHT22;17580;50.850;4.504;2023-07-09T10:57:19;29.00;24.70
10192;DHT22;17580;50.850;4.504;2023-07-09T10:59:49;28.80;25.30
10192;DHT22;17580;50.850;4.504;2023-07-09T11:02:21;28.50;25.80
10192;DHT22;17580;50.850;4.504;2023-07-09T11:04:51;28.30;25.60
10192;DHT22;17580;50.850;4.504;2023-07-09T11:07:25;28.10;27.10
10192;DHT22;17580;50.850;4.504;2023-07-09T11:09:54;28.10;26.70
10192;DHT22;17580;50.850;4.504;2023-07-09T11:12:27;28.10;27.40
10192;DHT22;17580;50.850;4.504;2023-07-09T11:14:58;28.00;27.30
10192;DHT22;17580;50.850;4.504;2023-07-09T11:17:27;27.80;28.00
10192;DHT22;17580;50.850;4.504;2023-07-09T11:19:56;27.60;28.70
10192;DHT22;17580;50.850;4.504;2023-07-09T11:22:27;27.50;28.40
10192;DHT22;17580;50.850;4.504;2023-07-09T11:25:10;27.30;30.00
10192;DHT22;17580;50.850;4.504;2023-07-09T11:28:01;26.90;28.80
10192;DHT22;17580;50.850;4.504;2023-07-09T11:30:29;26.70;30.40
10192;DHT22;17580;50.850;4.504;2023-07-09T11:32:58;26.60;30.50
10192;DHT22;17580;50.850;4.504;2023-07-09T11:35:27;26.40;29.60
10192;DHT22;17580;50.850;4.504;2023-07-09T11:37:56;26.30;32.70
10192;DHT22;17580;50.850;4.504;2023-07-09T11:40:33;26.00;32.50
10192;DHT22;17580;50.850;4.504;2023-07-09T11:43:01;25.90;34.10
10192;DHT22;17580;50.850;4.504;2023-07-09T11:45:31;25.80;33.20
10192;DHT22;17580;50.850;4.504;2023-07-09T11:48:05;25.70;34.70
10192;DHT22;17580;50.850;4.504;2023-07-09T11:50:39;25.60;34.20
10192;DHT22;17580;50.850;4.504;2023-07-09T11:53:22;25.50;34.40
10192;DHT22;17580;50.850;4.504;2023-07-09T11:55:51;25.40;34.90
10192;DHT22;17580;50.850;4.504;2023-07-09T11:58:19;25.30;36.10
10192;DHT22;17580;50.850;4.504;2023-07-09T12:00:48;25.20;36.00
10192;DHT22;17580;50.850;4.504;2023-07-09T12:03:19;25.10;34.80
10192;DHT22;17580;50.850;4.504;2023-07-09T12:05:49;25.10;36.30
10192;DHT22;17580;50.850;4.504;2023-07-09T12:08:21;25.10;36.10
10192;DHT22;17580;50.850;4.504;2023-07-09T12:10:49;25.10;37.10
10192;DHT22;17580;50.850;4.504;2023-07-09T12:13:16;25.10;37.80
10192;DHT22;17580;50.850;4.504;2023-07-09T12:15:43;25.00;34.80
10192;DHT22;17580;50.850;4.504;2023-07-09T12:18:12;24.90;36.20
10192;DHT22;17580;50.850;4.504;2023-07-09T12:20:40;24.90;34.30
10192;DHT22;17580;50.850;4.504;2023-07-09T12:23:19;24.90;35.20
10192;DHT22;17580;50.850;4.504;2023-07-09T12:25:48;24.90;37.00
10192;DHT22;17580;50.850;4.504;2023-07-09T12:28:16;24.70;37.40
10192;DHT22;17580;50.850;4.504;2023-07-09T12:30:45;24.70;40.20
10192;DHT22;17580;50.850;4.504;2023-07-09T12:33:16;24.60;39.80
10192;DHT22;17580;50.850;4.504;2023-07-09T12:35:43;24.30;43.30
10192;DHT22;17580;50.850;4.504;2023-07-09T12:38:19;24.10;48.50
10192;DHT22;17580;50.850;4.504;2023-07-09T12:40:47;23.80;50.40
10192;DHT22;17580;50.850;4.504;2023-07-09T12:43:18;23.40;54.90
10192;DHT22;17580;50.850;4.504;2023-07-09T12:45:46;23.20;58.70
10192;DHT22;17580;50.850;4.504;2023-07-09T12:48:14;23.10;61.40
10192;DHT22;17580;50.850;4.504;2023-07-09T12:50:41;23.00;65.90
10192;DHT22;17580;50.850;4.504;2023-07-09T12:53:16;23.00;69.00
10192;DHT22;17580;50.850;4.504;2023-07-09T12:55:47;23.00;76.10
10192;DHT22;17580;50.850;4.504;2023-07-09T12:58:19;23.00;80.60
10192;DHT22;17580;50.850;4.504;2023-07-09T13:00:51;23.10;82.40
10192;DHT22;17580;50.850;4.504;2023-07-09T13:03:21;23.10;82.30
10192;DHT22;17580;50.850;4.504;2023-07-09T13:05:53;23.10;84.10
10192;DHT22;17580;50.850;4.504;2023-07-09T13:08:21;23.20;82.20
10192;DHT22;17580;50.850;4.504;2023-07-09T13:10:50;23.30;82.40
10192;DHT22;17580;50.850;4.504;2023-07-09T13:13:20;23.40;82.60
10192;DHT22;17580;50.850;4.504;2023-07-09T13:15:49;23.40;81.00
10192;DHT22;17580;50.850;4.504;2023-07-09T13:18:17;23.50;81.40
10192;DHT22;17580;50.850;4.504;2023-07-09T13:20:45;23.60;80.90
10192;DHT22;17580;50.850;4.504;2023-07-09T13:23:15;23.70;80.40
10192;DHT22;17580;50.850;4.504;2023-07-09T13:25:42;23.80;80.20
10192;DHT22;17580;50.850;4.504;2023-07-09T13:28:18;23.90;80.70
10192;DHT22;17580;50.850;4.504;2023-07-09T13:30:46;24.00;80.80
10192;DHT22;17580;50.850;4.504;2023-07-09T13:33:13;24.10;80.90
10192;DHT22;17580;50.850;4.504;2023-07-09T13:35:40;24.20;81.20
10192;DHT22;17580;50.850;4.504;2023-07-09T13:38:14;24.30;79.30
10192;DHT22;17580;50.850;4.504;2023-07-09T13:40:44;24.30;80.80
10192;DHT22;17580;50.850;4.504;2023-07-09T13:43:24;24.30;79.10
10192;DHT22;17580;50.850;4.504;2023-07-09T13:45:52;24.30;79.70
10192;DHT22;17580;50.850;4.504;2023-07-09T13:48:21;24.50;78.80
10192;DHT22;17580;50.850;4.504;2023-07-09T13:50:50;24.50;78.30
10192;DHT22;17580;50.850;4.504;2023-07-09T13:53:19;24.60;78.80
10192;DHT22;17580;50.850;4.504;2023-07-09T13:55:47;24.70;76.10
10192;DHT22;17580;50.850;4.504;2023-07-09T13:58:18;24.90;74.50
10192;DHT22;17580;50.850;4.504;2023-07-09T14:00:47;25.00;74.90
10192;DHT22;17580;50.850;4.504;2023-07-09T14:03:18;25.00;74.10
10192;DHT22;17580;50.850;4.504;2023-07-09T14:05:46;25.00;70.50
10192;DHT22;17580;50.850;4.504;2023-07-09T14:08:13;25.00;73.00
10192;DHT22;17580;50.850;4.504;2023-07-09T14:10:40;24.90;72.00
10192;DHT22;17580;50.850;4.504;2023-07-09T14:13:12;24.90;70.10
10192;DHT22;17580;50.850;4.504;2023-07-09T14:15:41;24.90;69.10
10192;DHT22;17580;50.850;4.504;2023-07-09T14:18:12;25.00;70.60
10192;DHT22;17580;50.850;4.504;2023-07-09T14:20:39;25.00;69.40
10192;DHT22;17580;50.850;4.504;2023-07-09T14:23:09;25.10;69.50
10192;DHT22;17580;50.850;4.504;2023-07-09T14:25:37;25.30;72.30
10192;DHT22;17580;50.850;4.504;2023-07-09T14:28:10;25.50;71.10
10192;DHT22;17580;50.850;4.504;2023-07-09T14:30:37;25.70;67.50
10192;DHT22;17580;50.850;4.504;2023-07-09T14:33:12;26.00;67.40
10192;DHT22;17580;50.850;4.504;2023-07-09T14:35:40;26.30;66.20
10192;DHT22;17580;50.850;4.504;2023-07-09T14:38:19;26.50;61.50
10192;DHT22;17580;50.850;4.504;2023-07-09T14:40:48;26.60;60.30
10192;DHT22;17580;50.850;4.504;2023-07-09T14:43:15;26.70;59.40
10192;DHT22;17580;50.850;4.504;2023-07-09T14:45:42;26.70;59.60
10192;DHT22;17580;50.850;4.504;2023-07-09T14:48:12;26.70;59.10
10192;DHT22;17580;50.850;4.504;2023-07-09T14:50:41;26.60;58.20
10192;DHT22;17580;50.850;4.504;2023-07-09T14:53:14;26.50;58.10
10192;DHT22;17580;50.850;4.504;2023-07-09T14:55:42;26.40;57.60
10192;DHT22;17580;50.850;4.504;2023-07-09T14:58:15;26.20;58.10
10192;DHT22;17580;50.850;4.504;2023-07-09T15:00:42;26.10;58.60
10192;DHT22;17580;50.850;4.504;2023-07-09T15:03:18;25.80;59.10
10192;DHT22;17580;50.850;4.504;2023-07-09T15:05:46;25.70;60.50
10192;DHT22;17580;50.850;4.504;2023-07-09T15:08:14;25.50;62.80
10192;DHT22;17580;50.850;4.504;2023-07-09T15:10:41;25.30;60.70
10192;DHT22;17580;50.850;4.504;2023-07-09T15:13:16;25.40;64.60
10192;DHT22;17580;50.850;4.504;2023-07-09T15:15:44;25.60;62.00
10192;DHT22;17580;50.850;4.504;2023-07-09T15:18:14;25.70;63.60
10192;DHT22;17580;50.850;4.504;2023-07-09T15:20:48;25.80;63.40
10192;DHT22;17580;50.850;4.504;2023-07-09T15:23:16;26.00;61.80
10192;DHT22;17580;50.850;4.504;2023-07-09T15:25:43;26.00;58.50
10192;DHT22;17580;50.850;4.504;2023-07-09T15:28:11;26.10;59.70
10192;DHT22;17580;50.850;4.504;2023-07-09T15:30:39;26.30;58.50
10192;DHT22;17580;50.850;4.504;2023-07-09T15:33:12;26.40;59.60
10192;DHT22;17580;50.850;4.504;2023-07-09T15:35:41;26.60;58.00
10192;DHT22;17580;50.850;4.504;2023-07-09T15:38:21;26.70;58.70
10192;DHT22;17580;50.850;4.504;2023-07-09T15:40:51;27.00;57.30
10192;DHT22;17580;50.850;4.504;2023-07-09T15:43:18;27.00;57.20
10192;DHT22;17580;50.850;4.504;2023-07-09T15:45:47;27.00;54.20
10192;DHT22;17580;50.850;4.504;2023-07-09T15:48:22;26.80;56.20
10192;DHT22;17580;50.850;4.504;2023-07-09T15:50:51;26.70;56.60
10192;DHT22;17580;50.850;4.504;2023-07-09T15:53:22;26.60;56.30
10192;DHT22;17580;50.850;4.504;2023-07-09T15:55:49;26.60;56.60
10192;DHT22;17580;50.850;4.504;2023-07-09T15:58:23;26.50;56.10
10192;DHT22;17580;50.850;4.504;2023-07-09T16:00:50;26.40;57.50
10192;DHT22;17580;50.850;4.504;2023-07-09T16:03:17;26.40;57.10
10192;DHT22;17580;50.850;4.504;2023-07-09T16:05:44;26.50;55.80
10192;DHT22;17580;50.850;4.504;2023-07-09T16:08:13;26.40;56.50
10192;DHT22;17580;50.850;4.504;2023-07-09T16:10:40;26.40;56.30
10192;DHT22;17580;50.850;4.504;2023-07-09T16:15:43;26.20;56.20
10192;DHT22;17580;50.850;4.504;2023-07-09T16:18:10;26.20;56.50
10192;DHT22;17580;50.850;4.504;2023-07-09T16:20:37;26.20;56.80
10192;DHT22;17580;50.850;4.504;2023-07-09T16:23:04;26.10;56.80
10192;DHT22;17580;50.850;4.504;2023-07-09T16:25:35;25.90;55.90
10192;DHT22;17580;50.850;4.504;2023-07-09T16:28:03;25.80;55.30
10192;DHT22;17580;50.850;4.504;2023-07-09T16:30:30;25.70;54.30
10192;DHT22;17580;50.850;4.504;2023-07-09T16:32:58;25.70;55.60
10192;DHT22;17580;50.850;4.504;2023-07-09T16:35:26;25.70;55.00
10192;DHT22;17580;50.850;4.504;2023-07-09T16:37:55;25.70;57.10
10192;DHT22;17580;50.850;4.504;2023-07-09T16:40:23;25.70;54.50
10192;DHT22;17580;50.850;4.504;2023-07-09T16:42:53;25.50;53.10
10192;DHT22;17580;50.850;4.504;2023-07-09T16:45:23;25.40;54.40
10192;DHT22;17580;50.850;4.504;2023-07-09T16:47:50;25.20;53.50
10192;DHT22;17580;50.850;4.504;2023-07-09T16:50:19;25.10;53.50
10192;DHT22;17580;50.850;4.504;2023-07-09T16:52:47;25.00;54.80
10192;DHT22;17580;50.850;4.504;2023-07-09T16:55:17;24.90;54.90
10192;DHT22;17580;50.850;4.504;2023-07-09T16:57:46;24.80;55.10
10192;DHT22;17580;50.850;4.504;2023-07-09T17:00:26;24.70;57.10
10192;DHT22;17580;50.850;4.504;2023-07-09T17:02:55;24.70;56.10
10192;DHT22;17580;50.850;4.504;2023-07-09T17:05:24;24.60;54.60
10192;DHT22;17580;50.850;4.504;2023-07-09T17:07:51;24.60;55.20
10192;DHT22;17580;50.850;4.504;2023-07-09T17:10:19;24.60;55.60
10192;DHT22;17580;50.850;4.504;2023-07-09T17:12:49;24.60;56.20
10192;DHT22;17580;50.850;4.504;2023-07-09T17:15:21;24.50;56.50
10192;DHT22;17580;50.850;4.504;2023-07-09T17:17:50;24.40;56.10
10192;DHT22;17580;50.850;4.504;2023-07-09T17:20:18;24.10;55.40
10192;DHT22;17580;50.850;4.504;2023-07-09T17:22:45;24.10;55.80
10192;DHT22;17580;50.850;4.504;2023-07-09T17:28:34;23.60;54.70
10192;DHT22;17580;50.850;4.504;2023-07-09T17:31:02;23.70;54.90
10192;DHT22;17580;50.850;4.504;2023-07-09T17:33:30;23.70;54.60
10192;DHT22;17580;50.850;4.504;2023-07-09T17:35:58;23.70;54.90
10192;DHT22;17580;50.850;4.504;2023-07-09T17:38:30;23.70;54.90
10192;DHT22;17580;50.850;4.504;2023-07-09T17:40:57;23.60;53.40
10192;DHT22;17580;50.850;4.504;2023-07-09T17:43:25;23.50;51.50
10192;DHT22;17580;50.850;4.504;2023-07-09T17:45:53;23.30;52.00
10192;DHT22;17580;50.850;4.504;2023-07-09T17:48:24;23.20;52.70
10192;DHT22;17580;50.850;4.504;2023-07-09T17:50:53;23.30;52.00
10192;DHT22;17580;50.850;4.504;2023-07-09T17:53:22;23.20;52.10
10192;DHT22;17580;50.850;4.504;2023-07-09T17:55:49;23.20;51.90
10192;DHT22;17580;50.850;4.504;2023-07-09T17:58:21;23.20;51.10
10192;DHT22;17580;50.850;4.504;2023-07-09T18:00:48;23.20;50.50
10192;DHT22;17580;50.850;4.504;2023-07-09T18:03:18;23.20;50.00
10192;DHT22;17580;50.850;4.504;2023-07-09T18:05:48;23.10;50.40
10192;DHT22;17580;50.850;4.504;2023-07-09T18:08:17;23.20;50.40
10192;DHT22;17580;50.850;4.504;2023-07-09T18:10:44;23.10;49.90
10192;DHT22;17580;50.850;4.504;2023-07-09T18:13:14;22.90;48.10
10192;DHT22;17580;50.850;4.504;2023-07-09T18:15:42;22.80;49.20
10192;DHT22;17580;50.850;4.504;2023-07-09T18:18:12;22.70;49.00
10192;DHT22;17580;50.850;4.504;2023-07-09T18:20:39;22.70;47.40
10192;DHT22;17580;50.850;4.504;2023-07-09T18:23:07;22.60;49.00
10192;DHT22;17580;50.850;4.504;2023-07-09T18:25:37;22.60;49.10
10192;DHT22;17580;50.850;4.504;2023-07-09T18:28:06;22.60;48.10
10192;DHT22;17580;50.850;4.504;2023-07-09T18:30:35;22.60;48.80
10192;DHT22;17580;50.850;4.504;2023-07-09T18:33:04;22.60;46.60
10192;DHT22;17580;50.850;4.504;2023-07-09T18:35:32;22.50;46.40
10192;DHT22;17580;50.850;4.504;2023-07-09T18:38:02;22.60;46.20
10192;DHT22;17580;50.850;4.504;2023-07-09T18:40:30;22.50;46.40
10192;DHT22;17580;50.850;4.504;2023-07-09T18:42:59;22.50;45.90
10192;DHT22;17580;50.850;4.504;2023-07-09T18:45:28;22.40;45.50
10192;DHT22;17580;50.850;4.504;2023-07-09T18:47:55;22.40;44.60
10192;DHT22;17580;50.850;4.504;2023-07-09T18:50:25;22.40;46.20
10192;DHT22;17580;50.850;4.504;2023-07-09T18:52:53;22.30;45.20
10192;DHT22;17580;50.850;4.504;2023-07-09T18:55:22;22.30;45.30
10192;DHT22;17580;50.850;4.504;2023-07-09T18:57:50;22.30;47.00
10192;DHT22;17580;50.850;4.504;2023-07-09T19:00:20;22.30;46.90
10192;DHT22;17580;50.850;4.504;2023-07-09T19:02:50;22.20;46.60
10192;DHT22;17580;50.850;4.504;2023-07-09T19:05:21;22.20;46.30
10192;DHT22;17580;50.850;4.504;2023-07-09T19:07:50;22.10;46.30
10192;DHT22;17580;50.850;4.504;2023-07-09T19:10:20;22.20;45.90
10192;DHT22;17580;50.850;4.504;2023-07-09T19:12:49;22.10;46.90
10192;DHT22;17580;50.850;4.504;2023-07-09T19:15:20;22.10;46.40
10192;DHT22;17580;50.850;4.504;2023-07-09T19:17:47;22.00;46.90
10192;DHT22;17580;50.850;4.504;2023-07-09T19:20:17;22.00;47.10
10192;DHT22;17580;50.850;4.504;2023-07-09T19:22:45;21.90;47.60
10192;DHT22;17580;50.850;4.504;2023-07-09T19:25:16;21.90;47.70
10192;DHT22;17580;50.850;4.504;2023-07-09T19:27:44;21.90;48.30
10192;DHT22;17580;50.850;4.504;2023-07-09T19:30:12;21.80;48.30
10192;DHT22;17580;50.850;4.504;2023-07-09T19:32:44;21.70;48.90
10192;DHT22;17580;50.850;4.504;2023-07-09T19:35:17;21.70;49.30
10192;DHT22;17580;50.850;4.504;2023-07-09T19:37:44;21.70;49.50
10192;DHT22;17580;50.850;4.504;2023-07-09T19:40:19;21.60;49.60
10192;DHT22;17580;50.850;4.504;2023-07-09T19:42:47;21.60;49.90
10192;DHT22;17580;50.850;4.504;2023-07-09T19:45:15;21.50;49.20
10192;DHT22;17580;50.850;4.504;2023-07-09T19:47:44;21.50;49.50
10192;DHT22;17580;50.850;4.504;2023-07-09T19:50:21;21.50;50.40
10192;DHT22;17580;50.850;4.504;2023-07-09T19:52:49;21.50;50.60
10192;DHT22;17580;50.850;4.504;2023-07-09T19:55:18;21.50;50.60
10192;DHT22;17580;50.850;4.504;2023-07-09T19:57:46;21.50;50.30
10192;DHT22;17580;50.850;4.504;2023-07-09T20:00:14;21.50;51.40
10192;DHT22;17580;50.850;4.504;2023-07-09T20:02:41;21.50;51.70
10192;DHT22;17580;50.850;4.504;2023-07-09T20:05:18;21.50;51.30
10192;DHT22;17580;50.850;4.504;2023-07-09T20:07:46;21.50;51.80
10192;DHT22;17580;50.850;4.504;2023-07-09T20:10:13;21.40;51.80
10192;DHT22;17580;50.850;4.504;2023-07-09T20:12:45;21.30;51.60
10192;DHT22;17580;50.850;4.504;2023-07-09T20:15:18;21.30;50.80
10192;DHT22;17580;50.850;4.504;2023-07-09T20:17:46;21.30;52.50
10192;DHT22;17580;50.850;4.504;2023-07-09T20:20:13;21.20;52.60
10192;DHT22;17580;50.850;4.504;2023-07-09T20:22:41;21.20;51.40
10192;DHT22;17580;50.850;4.504;2023-07-09T20:25:14;21.20;52.20
10192;DHT22;17580;50.850;4.504;2023-07-09T20:27:41;21.20;51.90
10192;DHT22;17580;50.850;4.504;2023-07-09T20:30:10;21.20;52.20
10192;DHT22;17580;50.850;4.504;2023-07-09T20:32:38;21.20;54.70
10192;DHT22;17580;50.850;4.504;2023-07-09T20:35:14;21.10;55.20
10192;DHT22;17580;50.850;4.504;2023-07-09T20:37:43;21.00;53.90
10192;DHT22;17580;50.850;4.504;2023-07-09T20:40:12;20.90;52.30
10192;DHT22;17580;50.850;4.504;2023-07-09T20:42:40;20.90;53.40
10192;DHT22;17580;50.850;4.504;2023-07-09T20:45:13;20.90;53.10
10192;DHT22;17580;50.850;4.504;2023-07-09T20:47:40;20.90;53.80
10192;DHT22;17580;50.850;4.504;2023-07-09T20:50:09;20.80;55.70